sensor_id;sensor_type;location;lat;lon;timestamp;P1;durP1;ratioP1;P2;durP2;ratioP2
7473;SDS011;3778;42.572;23.426;2022-12-16T00:01:04;161.30;;;42.90;;
7473;SDS011;3778;42.572;23.426;2022-12-16T00:03:34;75.67;;;29.47;;
7473;SDS011;3778;42.572;23.426;2022-12-16T00:06:02;35.80;;;17.83;;
7473;SDS011;3778;42.572;23.426;2022-12-16T00:08:30;24.10;;;10.17;;
7473;SDS011;3778;42.572;23.426;2022-12-16T00:10:58;17.17;;;8.77;;
7473;SDS011;3778;42.572;23.426;2022-12-16T00:13:26;10.40;;;7.47;;
7473;SDS011;3778;42.572;23.426;2022-12-16T00:15:53;11.27;;;7.13;;
7473;SDS011;3778;42.572;23.426;2022-12-16T00:18:20;8.27;;;5.67;;
7473;SDS011;3778;42.572;23.426;2022-12-16T00:20:48;9.73;;;6.33;;
7473;SDS011;3778;42.572;23.426;2022-12-16T00:23:17;8.13;;;5.57;;
7473;SDS011;3778;42.572;23.426;2022-12-16T00:25:45;7.67;;;5.00;;
7473;SDS011;3778;42.572;23.426;2022-12-16T00:28:13;7.90;;;5.70;;
7473;SDS011;3778;42.572;23.426;2022-12-16T00:30:40;8.80;;;4.90;;
7473;SDS011;3778;42.572;23.426;2022-12-16T00:33:07;8.33;;;5.77;;
7473;SDS011;3778;42.572;23.426;2022-12-16T00:35:34;7.83;;;5.77;;
7473;SDS011;3778;42.572;23.426;2022-12-16T00:38:02;6.93;;;5.43;;
7473;SDS011;3778;42.572;23.426;2022-12-16T00:40:29;8.27;;;4.93;;
7473;SDS011;3778;42.572;23.426;2022-12-16T00:42:56;7.23;;;5.00;;
7473;SDS011;3778;42.572;23.426;2022-12-16T00:45:22;9.73;;;6.03;;
7473;SDS011;3778;42.572;23.426;2022-12-16T00:47:49;11.60;;;5.70;;
7473;SDS011;3778;42.572;23.426;2022-12-16T00:50:16;6.93;;;4.90;;
7473;SDS011;3778;42.572;23.426;2022-12-16T00:52:44;11.03;;;5.87;;
7473;SDS011;3778;42.572;23.426;2022-12-16T00:55:12;9.20;;;6.13;;
7473;SDS011;3778;42.572;23.426;2022-12-16T00:57:40;9.53;;;6.00;;
7473;SDS011;3778;42.572;23.426;2022-12-16T01:00:07;10.20;;;6.17;;
7473;SDS011;3778;42.572;23.426;2022-12-16T01:02:37;9.83;;;6.00;;
7473;SDS011;3778;42.572;23.426;2022-12-16T01:05:05;8.37;;;5.70;;
7473;SDS011;3778;42.572;23.426;2022-12-16T01:07:32;8.77;;;6.40;;
7473;SDS011;3778;42.572;23.426;2022-12-16T01:09:59;11.50;;;6.50;;
7473;SDS011;3778;42.572;23.426;2022-12-16T01:12:27;10.53;;;6.13;;
7473;SDS011;3778;42.572;23.426;2022-12-16T01:14:54;10.57;;;5.97;;
7473;SDS011;3778;42.572;23.426;2022-12-16T01:17:20;10.47;;;6.37;;
7473;SDS011;3778;42.572;23.426;2022-12-16T01:19:50;8.80;;;6.53;;
7473;SDS011;3778;42.572;23.426;2022-12-16T01:22:17;8.13;;;6.33;;
7473;SDS011;3778;42.572;23.426;2022-12-16T01:24:44;8.63;;;6.20;;
7473;SDS011;3778;42.572;23.426;2022-12-16T01:27:11;9.37;;;5.97;;
7473;SDS011;3778;42.572;23.426;2022-12-16T01:29:39;535.50;;;66.40;;
7473;SDS011;3778;42.572;23.426;2022-12-16T01:32:06;446.13;;;56.73;;
7473;SDS011;3778;42.572;23.426;2022-12-16T01:34:34;225.77;;;39.13;;
7473;SDS011;3778;42.572;23.426;2022-12-16T01:37:01;461.37;;;58.07;;
7473;SDS011;3778;42.572;23.426;2022-12-16T01:39:28;571.93;;;68.73;;
7473;SDS011;3778;42.572;23.426;2022-12-16T01:41:54;425.10;;;59.03;;
7473;SDS011;3778;42.572;23.426;2022-12-16T01:44:22;378.37;;;47.90;;
7473;SDS011;3778;42.572;23.426;2022-12-16T01:46:52;24.10;;;14.43;;
7473;SDS011;3778;42.572;23.426;2022-12-16T01:49:24;34.07;;;16.43;;
7473;SDS011;3778;42.572;23.426;2022-12-16T01:51:53;51.47;;;24.73;;
7473;SDS011;3778;42.572;23.426;2022-12-16T01:54:25;133.57;;;34.03;;
7473;SDS011;3778;42.572;23.426;2022-12-16T01:56:56;158.67;;;32.33;;
7473;SDS011;3778;42.572;23.426;2022-12-16T01:59:26;16.73;;;10.00;;
7473;SDS011;3778;42.572;23.426;2022-12-16T02:01:57;22.87;;;11.50;;
7473;SDS011;3778;42.572;23.426;2022-12-16T02:04:25;36.20;;;18.97;;
7473;SDS011;3778;42.572;23.426;2022-12-16T02:06:51;18.23;;;11.30;;
7473;SDS011;3778;42.572;23.426;2022-12-16T02:09:19;18.40;;;10.33;;
7473;SDS011;3778;42.572;23.426;2022-12-16T02:12:03;22.60;;;13.17;;
7473;SDS011;3778;42.572;23.426;2022-12-16T02:14:49;98.90;;;29.80;;
7473;SDS011;3778;42.572;23.426;2022-12-16T02:17:32;24.27;;;14.10;;
7473;SDS011;3778;42.572;23.426;2022-12-16T02:23:15;26.07;;;13.73;;
7473;SDS011;3778;42.572;23.426;2022-12-16T02:26:10;16.93;;;9.37;;
7473;SDS011;3778;42.572;23.426;2022-12-16T02:29:04;12.70;;;7.30;;
7473;SDS011;3778;42.572;23.426;2022-12-16T02:31:49;9.23;;;6.10;;
7473;SDS011;3778;42.572;23.426;2022-12-16T02:34:24;11.07;;;7.17;;
7473;SDS011;3778;42.572;23.426;2022-12-16T02:37:02;13.47;;;7.67;;
7473;SDS011;3778;42.572;23.426;2022-12-16T02:39:39;12.80;;;6.40;;
7473;SDS011;3778;42.572;23.426;2022-12-16T02:42:12;13.17;;;7.40;;
7473;SDS011;3778;42.572;23.426;2022-12-16T02:44:43;12.43;;;7.47;;
7473;SDS011;3778;42.572;23.426;2022-12-16T02:47:20;11.37;;;6.40;;
7473;SDS011;3778;42.572;23.426;2022-12-16T02:49:48;10.70;;;6.30;;
7473;SDS011;3778;42.572;23.426;2022-12-16T02:52:16;9.70;;;6.03;;
7473;SDS011;3778;42.572;23.426;2022-12-16T02:54:47;9.47;;;6.27;;
7473;SDS011;3778;42.572;23.426;2022-12-16T03:00:24;12.37;;;6.47;;
7473;SDS011;3778;42.572;23.426;2022-12-16T03:02:55;39.50;;;19.37;;
7473;SDS011;3778;42.572;23.426;2022-12-16T03:05:28;43.60;;;23.10;;
7473;SDS011;3778;42.572;23.426;2022-12-16T03:07:58;39.80;;;22.03;;
7473;SDS011;3778;42.572;23.426;2022-12-16T03:10:30;30.20;;;16.40;;
7473;SDS011;3778;42.572;23.426;2022-12-16T03:13:02;17.70;;;10.30;;
7473;SDS011;3778;42.572;23.426;2022-12-16T03:15:31;16.03;;;9.50;;
7473;SDS011;3778;42.572;23.426;2022-12-16T03:18:01;12.63;;;7.27;;
7473;SDS011;3778;42.572;23.426;2022-12-16T03:20:32;13.73;;;8.87;;
7473;SDS011;3778;42.572;23.426;2022-12-16T03:23:02;12.97;;;7.60;;
7473;SDS011;3778;42.572;23.426;2022-12-16T03:25:33;11.10;;;7.00;;
7473;SDS011;3778;42.572;23.426;2022-12-16T03:28:05;13.93;;;8.10;;
7473;SDS011;3778;42.572;23.426;2022-12-16T03:30:43;12.63;;;7.70;;
7473;SDS011;3778;42.572;23.426;2022-12-16T03:33:17;19.57;;;10.43;;
7473;SDS011;3778;42.572;23.426;2022-12-16T03:35:48;12.70;;;7.53;;
7473;SDS011;3778;42.572;23.426;2022-12-16T03:38:19;10.20;;;6.67;;
7473;SDS011;3778;42.572;23.426;2022-12-16T03:40:47;13.67;;;7.50;;
7473;SDS011;3778;42.572;23.426;2022-12-16T03:43:15;8.07;;;5.07;;
7473;SDS011;3778;42.572;23.426;2022-12-16T03:45:43;10.83;;;6.70;;
7473;SDS011;3778;42.572;23.426;2022-12-16T03:48:11;11.53;;;6.73;;
7473;SDS011;3778;42.572;23.426;2022-12-16T03:50:42;11.33;;;5.57;;
7473;SDS011;3778;42.572;23.426;2022-12-16T03:53:09;14.47;;;7.20;;
7473;SDS011;3778;42.572;23.426;2022-12-16T03:55:35;8.53;;;5.40;;
7473;SDS011;3778;42.572;23.426;2022-12-16T03:58:02;7.67;;;5.37;;
7473;SDS011;3778;42.572;23.426;2022-12-16T04:00:29;8.43;;;5.37;;
7473;SDS011;3778;42.572;23.426;2022-12-16T04:02:55;41.07;;;13.13;;
7473;SDS011;3778;42.572;23.426;2022-12-16T04:05:22;336.30;;;39.57;;
7473;SDS011;3778;42.572;23.426;2022-12-16T04:07:50;669.90;;;65.57;;
7473;SDS011;3778;42.572;23.426;2022-12-16T04:10:17;321.33;;;36.00;;
7473;SDS011;3778;42.572;23.426;2022-12-16T04:13:06;385.03;;;38.67;;
7473;SDS011;3778;42.572;23.426;2022-12-16T04:15:51;449.20;;;45.57;;
7473;SDS011;3778;42.572;23.426;2022-12-16T04:18:35;244.97;;;30.87;;
7473;SDS011;3778;42.572;23.426;2022-12-16T04:21:20;36.10;;;16.07;;
7473;SDS011;3778;42.572;23.426;2022-12-16T04:24:08;414.40;;;48.27;;
7473;SDS011;3778;42.572;23.426;2022-12-16T04:26:44;396.93;;;43.90;;
7473;SDS011;3778;42.572;23.426;2022-12-16T04:29:28;296.17;;;33.50;;
7473;SDS011;3778;42.572;23.426;2022-12-16T04:31:55;608.73;;;56.40;;
7473;SDS011;3778;42.572;23.426;2022-12-16T04:34:23;432.53;;;43.13;;
7473;SDS011;3778;42.572;23.426;2022-12-16T04:36:53;25.93;;;11.43;;
7473;SDS011;3778;42.572;23.426;2022-12-16T04:39:40;17.43;;;9.83;;
7473;SDS011;3778;42.572;23.426;2022-12-16T04:42:25;19.47;;;10.23;;
7473;SDS011;3778;42.572;23.426;2022-12-16T04:45:09;18.63;;;10.60;;
7473;SDS011;3778;42.572;23.426;2022-12-16T04:47:54;10.63;;;6.10;;
7473;SDS011;3778;42.572;23.426;2022-12-16T04:50:38;14.37;;;8.20;;
7473;SDS011;3778;42.572;23.426;2022-12-16T04:53:23;16.23;;;8.60;;
7473;SDS011;3778;42.572;23.426;2022-12-16T04:56:09;18.73;;;10.23;;
7473;SDS011;3778;42.572;23.426;2022-12-16T04:58:54;19.47;;;10.07;;
7473;SDS011;3778;42.572;23.426;2022-12-16T05:01:38;19.90;;;9.17;;
7473;SDS011;3778;42.572;23.426;2022-12-16T05:04:21;23.70;;;11.40;;
7473;SDS011;3778;42.572;23.426;2022-12-16T05:07:05;13.27;;;8.40;;
7473;SDS011;3778;42.572;23.426;2022-12-16T05:09:50;20.27;;;5.87;;
7473;SDS011;3778;42.572;23.426;2022-12-16T05:12:35;10.83;;;6.20;;
7473;SDS011;3778;42.572;23.426;2022-12-16T05:15:19;14.33;;;7.60;;
7473;SDS011;3778;42.572;23.426;2022-12-16T05:18:06;15.53;;;7.50;;
7473;SDS011;3778;42.572;23.426;2022-12-16T05:20:51;13.57;;;7.17;;
7473;SDS011;3778;42.572;23.426;2022-12-16T05:23:35;16.70;;;8.60;;
7473;SDS011;3778;42.572;23.426;2022-12-16T05:26:19;13.77;;;7.93;;
7473;SDS011;3778;42.572;23.426;2022-12-16T05:29:05;14.47;;;8.00;;
7473;SDS011;3778;42.572;23.426;2022-12-16T05:31:49;19.90;;;9.10;;
7473;SDS011;3778;42.572;23.426;2022-12-16T05:34:33;15.67;;;9.03;;
7473;SDS011;3778;42.572;23.426;2022-12-16T05:37:17;18.60;;;10.00;;
7473;SDS011;3778;42.572;23.426;2022-12-16T05:40:06;15.27;;;8.47;;
7473;SDS011;3778;42.572;23.426;2022-12-16T05:42:52;14.93;;;7.03;;
7473;SDS011;3778;42.572;23.426;2022-12-16T05:45:37;14.07;;;6.47;;
7473;SDS011;3778;42.572;23.426;2022-12-16T05:48:22;18.63;;;9.03;;
7473;SDS011;3778;42.572;23.426;2022-12-16T05:51:05;12.60;;;8.27;;
7473;SDS011;3778;42.572;23.426;2022-12-16T05:53:49;13.43;;;7.27;;
7473;SDS011;3778;42.572;23.426;2022-12-16T05:56:33;12.83;;;7.53;;
7473;SDS011;3778;42.572;23.426;2022-12-16T05:59:18;14.27;;;7.97;;
7473;SDS011;3778;42.572;23.426;2022-12-16T06:02:03;14.47;;;7.53;;
7473;SDS011;3778;42.572;23.426;2022-12-16T06:04:48;12.03;;;7.40;;
7473;SDS011;3778;42.572;23.426;2022-12-16T06:07:32;14.03;;;6.70;;
7473;SDS011;3778;42.572;23.426;2022-12-16T06:10:16;17.03;;;7.37;;
7473;SDS011;3778;42.572;23.426;2022-12-16T06:13:00;13.30;;;7.43;;
7473;SDS011;3778;42.572;23.426;2022-12-16T06:15:44;13.60;;;6.97;;
7473;SDS011;3778;42.572;23.426;2022-12-16T06:18:29;13.73;;;7.70;;
7473;SDS011;3778;42.572;23.426;2022-12-16T06:21:14;12.17;;;6.83;;
7473;SDS011;3778;42.572;23.426;2022-12-16T06:23:58;17.97;;;7.63;;
7473;SDS011;3778;42.572;23.426;2022-12-16T06:26:42;11.53;;;6.80;;
7473;SDS011;3778;42.572;23.426;2022-12-16T06:29:26;12.77;;;7.50;;
7473;SDS011;3778;42.572;23.426;2022-12-16T06:32:10;15.00;;;7.70;;
7473;SDS011;3778;42.572;23.426;2022-12-16T06:35:04;16.17;;;8.00;;
7473;SDS011;3778;42.572;23.426;2022-12-16T06:37:49;13.43;;;6.23;;
7473;SDS011;3778;42.572;23.426;2022-12-16T06:40:33;11.90;;;6.90;;
7473;SDS011;3778;42.572;23.426;2022-12-16T06:43:17;16.20;;;7.90;;
7473;SDS011;3778;42.572;23.426;2022-12-16T06:46:15;17.73;;;7.70;;
7473;SDS011;3778;42.572;23.426;2022-12-16T06:49:00;12.97;;;6.77;;
7473;SDS011;3778;42.572;23.426;2022-12-16T06:51:45;13.10;;;7.13;;
7473;SDS011;3778;42.572;23.426;2022-12-16T06:54:29;16.27;;;7.67;;
7473;SDS011;3778;42.572;23.426;2022-12-16T06:57:13;15.63;;;7.33;;
7473;SDS011;3778;42.572;23.426;2022-12-16T06:59:57;15.80;;;6.77;;
7473;SDS011;3778;42.572;23.426;2022-12-16T07:02:40;15.70;;;7.33;;
7473;SDS011;3778;42.572;23.426;2022-12-16T07:05:24;12.30;;;6.83;;
7473;SDS011;3778;42.572;23.426;2022-12-16T07:08:10;12.90;;;7.27;;
7473;SDS011;3778;42.572;23.426;2022-12-16T07:10:54;9.77;;;5.90;;
7473;SDS011;3778;42.572;23.426;2022-12-16T07:13:38;12.87;;;6.73;;
7473;SDS011;3778;42.572;23.426;2022-12-16T07:16:22;13.37;;;7.83;;
7473;SDS011;3778;42.572;23.426;2022-12-16T07:19:06;11.17;;;6.83;;
7473;SDS011;3778;42.572;23.426;2022-12-16T07:21:50;14.90;;;8.00;;
7473;SDS011;3778;42.572;23.426;2022-12-16T07:24:44;13.80;;;7.33;;
7473;SDS011;3778;42.572;23.426;2022-12-16T07:27:28;12.20;;;6.67;;
7473;SDS011;3778;42.572;23.426;2022-12-16T07:30:12;10.70;;;5.80;;
7473;SDS011;3778;42.572;23.426;2022-12-16T07:32:56;14.47;;;7.23;;
7473;SDS011;3778;42.572;23.426;2022-12-16T07:35:41;9.73;;;5.27;;
7473;SDS011;3778;42.572;23.426;2022-12-16T07:38:25;9.80;;;5.47;;
7473;SDS011;3778;42.572;23.426;2022-12-16T07:41:10;9.33;;;5.70;;
7473;SDS011;3778;42.572;23.426;2022-12-16T07:44:00;10.67;;;5.60;;
7473;SDS011;3778;42.572;23.426;2022-12-16T07:46:52;9.10;;;6.27;;
7473;SDS011;3778;42.572;23.426;2022-12-16T07:49:36;10.57;;;5.20;;
7473;SDS011;3778;42.572;23.426;2022-12-16T07:52:20;10.47;;;6.10;;
7473;SDS011;3778;42.572;23.426;2022-12-16T07:55:04;10.80;;;5.23;;
7473;SDS011;3778;42.572;23.426;2022-12-16T07:57:51;9.53;;;5.77;;
7473;SDS011;3778;42.572;23.426;2022-12-16T08:00:35;8.90;;;5.27;;
7473;SDS011;3778;42.572;23.426;2022-12-16T08:03:19;12.10;;;6.23;;
7473;SDS011;3778;42.572;23.426;2022-12-16T08:06:02;9.57;;;5.97;;
7473;SDS011;3778;42.572;23.426;2022-12-16T08:08:47;9.67;;;5.70;;
7473;SDS011;3778;42.572;23.426;2022-12-16T08:11:31;11.07;;;6.40;;
7473;SDS011;3778;42.572;23.426;2022-12-16T08:14:16;9.03;;;5.13;;
7473;SDS011;3778;42.572;23.426;2022-12-16T08:17:00;10.77;;;6.20;;
7473;SDS011;3778;42.572;23.426;2022-12-16T08:19:44;9.40;;;5.73;;
7473;SDS011;3778;42.572;23.426;2022-12-16T08:22:28;9.17;;;5.23;;
7473;SDS011;3778;42.572;23.426;2022-12-16T08:25:12;10.77;;;5.33;;
7473;SDS011;3778;42.572;23.426;2022-12-16T08:27:57;11.47;;;5.70;;
7473;SDS011;3778;42.572;23.426;2022-12-16T08:30:42;9.07;;;5.37;;
7473;SDS011;3778;42.572;23.426;2022-12-16T08:33:26;7.10;;;5.03;;
7473;SDS011;3778;42.572;23.426;2022-12-16T08:36:10;8.90;;;5.07;;
7473;SDS011;3778;42.572;23.426;2022-12-16T08:38:54;9.93;;;5.20;;
7473;SDS011;3778;42.572;23.426;2022-12-16T08:41:38;9.20;;;5.73;;
7473;SDS011;3778;42.572;23.426;2022-12-16T08:44:22;11.07;;;4.97;;
7473;SDS011;3778;42.572;23.426;2022-12-16T08:47:08;18.07;;;8.77;;
7473;SDS011;3778;42.572;23.426;2022-12-16T08:49:52;12.23;;;6.83;;
7473;SDS011;3778;42.572;23.426;2022-12-16T08:52:50;8.70;;;5.17;;
7473;SDS011;3778;42.572;23.426;2022-12-16T08:55:35;9.50;;;5.33;;
7473;SDS011;3778;42.572;23.426;2022-12-16T08:58:19;9.17;;;5.40;;
7473;SDS011;3778;42.572;23.426;2022-12-16T09:01:03;9.97;;;5.73;;
7473;SDS011;3778;42.572;23.426;2022-12-16T09:03:49;9.17;;;5.70;;
7473;SDS011;3778;42.572;23.426;2022-12-16T09:06:33;9.63;;;6.23;;
7473;SDS011;3778;42.572;23.426;2022-12-16T09:09:20;11.53;;;4.97;;
7473;SDS011;3778;42.572;23.426;2022-12-16T09:12:04;12.13;;;6.20;;
7473;SDS011;3778;42.572;23.426;2022-12-16T09:14:49;9.53;;;5.07;;
7473;SDS011;3778;42.572;23.426;2022-12-16T09:17:33;10.77;;;5.63;;
7473;SDS011;3778;42.572;23.426;2022-12-16T09:20:19;8.90;;;4.90;;
7473;SDS011;3778;42.572;23.426;2022-12-16T09:23:03;7.20;;;4.87;;
7473;SDS011;3778;42.572;23.426;2022-12-16T09:25:48;10.83;;;5.57;;
7473;SDS011;3778;42.572;23.426;2022-12-16T09:28:32;8.77;;;5.03;;
7473;SDS011;3778;42.572;23.426;2022-12-16T09:31:16;10.63;;;5.00;;
7473;SDS011;3778;42.572;23.426;2022-12-16T09:34:00;7.50;;;4.97;;
7473;SDS011;3778;42.572;23.426;2022-12-16T09:36:46;10.07;;;5.83;;
7473;SDS011;3778;42.572;23.426;2022-12-16T09:39:30;10.07;;;5.10;;
7473;SDS011;3778;42.572;23.426;2022-12-16T09:42:17;9.60;;;4.93;;
7473;SDS011;3778;42.572;23.426;2022-12-16T09:45:13;8.73;;;5.80;;
7473;SDS011;3778;42.572;23.426;2022-12-16T09:48:05;8.63;;;5.63;;
7473;SDS011;3778;42.572;23.426;2022-12-16T09:50:56;10.40;;;6.27;;
7473;SDS011;3778;42.572;23.426;2022-12-16T09:53:46;11.33;;;6.37;;
7473;SDS011;3778;42.572;23.426;2022-12-16T09:56:34;12.03;;;6.53;;
7473;SDS011;3778;42.572;23.426;2022-12-16T09:59:19;9.13;;;5.97;;
7473;SDS011;3778;42.572;23.426;2022-12-16T10:02:09;9.57;;;5.80;;
7473;SDS011;3778;42.572;23.426;2022-12-16T10:04:55;9.53;;;5.57;;
7473;SDS011;3778;42.572;23.426;2022-12-16T10:07:44;10.80;;;6.30;;
7473;SDS011;3778;42.572;23.426;2022-12-16T10:10:37;9.87;;;5.43;;
7473;SDS011;3778;42.572;23.426;2022-12-16T10:13:31;9.60;;;5.83;;
7473;SDS011;3778;42.572;23.426;2022-12-16T10:16:24;6.90;;;5.10;;
7473;SDS011;3778;42.572;23.426;2022-12-16T10:19:16;9.53;;;4.87;;
7473;SDS011;3778;42.572;23.426;2022-12-16T10:22:17;7.20;;;4.87;;
7473;SDS011;3778;42.572;23.426;2022-12-16T10:25:07;7.93;;;5.13;;
7473;SDS011;3778;42.572;23.426;2022-12-16T10:28:00;8.47;;;4.50;;
7473;SDS011;3778;42.572;23.426;2022-12-16T10:30:55;9.43;;;5.70;;
7473;SDS011;3778;42.572;23.426;2022-12-16T10:33:51;8.50;;;5.20;;
7473;SDS011;3778;42.572;23.426;2022-12-16T10:36:38;8.70;;;4.90;;
7473;SDS011;3778;42.572;23.426;2022-12-16T10:39:25;7.03;;;4.93;;
7473;SDS011;3778;42.572;23.426;2022-12-16T10:42:17;8.33;;;5.50;;
7473;SDS011;3778;42.572;23.426;2022-12-16T10:45:09;8.30;;;5.57;;
7473;SDS011;3778;42.572;23.426;2022-12-16T10:47:59;10.97;;;5.50;;
7473;SDS011;3778;42.572;23.426;2022-12-16T10:50:43;7.93;;;5.60;;
7473;SDS011;3778;42.572;23.426;2022-12-16T10:53:27;9.37;;;5.30;;
7473;SDS011;3778;42.572;23.426;2022-12-16T10:56:16;9.23;;;5.67;;
7473;SDS011;3778;42.572;23.426;2022-12-16T10:59:09;10.27;;;5.97;;
7473;SDS011;3778;42.572;23.426;2022-12-16T11:01:59;9.53;;;6.30;;
7473;SDS011;3778;42.572;23.426;2022-12-16T11:04:44;9.43;;;6.53;;
7473;SDS011;3778;42.572;23.426;2022-12-16T11:07:30;7.90;;;5.30;;
7473;SDS011;3778;42.572;23.426;2022-12-16T11:10:27;8.70;;;5.77;;
7473;SDS011;3778;42.572;23.426;2022-12-16T11:13:15;8.33;;;5.87;;
7473;SDS011;3778;42.572;23.426;2022-12-16T11:16:05;7.20;;;4.97;;
7473;SDS011;3778;42.572;23.426;2022-12-16T11:18:54;8.97;;;5.37;;
7473;SDS011;3778;42.572;23.426;2022-12-16T11:21:38;9.53;;;6.77;;
7473;SDS011;3778;42.572;23.426;2022-12-16T11:24:23;9.47;;;6.07;;
7473;SDS011;3778;42.572;23.426;2022-12-16T11:27:12;7.60;;;4.83;;
7473;SDS011;3778;42.572;23.426;2022-12-16T11:29:59;16.43;;;5.90;;
7473;SDS011;3778;42.572;23.426;2022-12-16T11:32:45;9.80;;;5.47;;
7473;SDS011;3778;42.572;23.426;2022-12-16T11:35:35;7.30;;;5.67;;
7473;SDS011;3778;42.572;23.426;2022-12-16T11:38:24;6.40;;;4.10;;
7473;SDS011;3778;42.572;23.426;2022-12-16T11:41:20;8.63;;;4.30;;
7473;SDS011;3778;42.572;23.426;2022-12-16T11:44:09;9.00;;;5.60;;
7473;SDS011;3778;42.572;23.426;2022-12-16T11:47:00;7.40;;;4.70;;
7473;SDS011;3778;42.572;23.426;2022-12-16T11:49:44;7.43;;;5.33;;
7473;SDS011;3778;42.572;23.426;2022-12-16T11:52:30;7.53;;;4.83;;
7473;SDS011;3778;42.572;23.426;2022-12-16T11:55:16;7.50;;;4.50;;
7473;SDS011;3778;42.572;23.426;2022-12-16T11:58:06;5.57;;;4.10;;
7473;SDS011;3778;42.572;23.426;2022-12-16T12:01:02;7.77;;;5.23;;
7473;SDS011;3778;42.572;23.426;2022-12-16T12:03:52;7.70;;;5.00;;
7473;SDS011;3778;42.572;23.426;2022-12-16T12:06:40;8.33;;;4.93;;
7473;SDS011;3778;42.572;23.426;2022-12-16T12:09:45;9.27;;;5.47;;
7473;SDS011;3778;42.572;23.426;2022-12-16T12:12:35;5.90;;;4.13;;
7473;SDS011;3778;42.572;23.426;2022-12-16T12:15:26;7.00;;;4.50;;
7473;SDS011;3778;42.572;23.426;2022-12-16T12:18:23;6.70;;;4.73;;
7473;SDS011;3778;42.572;23.426;2022-12-16T12:21:17;7.20;;;4.23;;
7473;SDS011;3778;42.572;23.426;2022-12-16T12:24:11;7.60;;;4.43;;
7473;SDS011;3778;42.572;23.426;2022-12-16T12:27:29;8.33;;;5.57;;
7473;SDS011;3778;42.572;23.426;2022-12-16T12:30:20;7.70;;;4.80;;
7473;SDS011;3778;42.572;23.426;2022-12-16T12:33:19;9.97;;;5.23;;
7473;SDS011;3778;42.572;23.426;2022-12-16T12:36:17;5.83;;;4.57;;
7473;SDS011;3778;42.572;23.426;2022-12-16T12:39:13;5.97;;;4.70;;
7473;SDS011;3778;42.572;23.426;2022-12-16T12:42:14;6.63;;;5.00;;
7473;SDS011;3778;42.572;23.426;2022-12-16T12:48:21;7.43;;;4.73;;
7473;SDS011;3778;42.572;23.426;2022-12-16T12:51:09;5.93;;;4.73;;
7473;SDS011;3778;42.572;23.426;2022-12-16T12:54:03;9.23;;;5.37;;
7473;SDS011;3778;42.572;23.426;2022-12-16T12:57:00;8.10;;;5.13;;
7473;SDS011;3778;42.572;23.426;2022-12-16T12:59:48;7.63;;;4.83;;
7473;SDS011;3778;42.572;23.426;2022-12-16T13:02:41;6.13;;;4.87;;
7473;SDS011;3778;42.572;23.426;2022-12-16T13:05:30;6.40;;;4.57;;
7473;SDS011;3778;42.572;23.426;2022-12-16T13:08:30;6.07;;;4.47;;
7473;SDS011;3778;42.572;23.426;2022-12-16T13:11:21;5.97;;;4.27;;
7473;SDS011;3778;42.572;23.426;2022-12-16T13:17:25;7.23;;;4.60;;
7473;SDS011;3778;42.572;23.426;2022-12-16T13:20:34;9.23;;;5.67;;
7473;SDS011;3778;42.572;23.426;2022-12-16T13:23:27;8.43;;;5.10;;
7473;SDS011;3778;42.572;23.426;2022-12-16T13:26:13;6.57;;;4.50;;
7473;SDS011;3778;42.572;23.426;2022-12-16T13:29:02;7.13;;;4.77;;
7473;SDS011;3778;42.572;23.426;2022-12-16T13:32:00;9.17;;;4.50;;
7473;SDS011;3778;42.572;23.426;2022-12-16T13:34:47;5.57;;;4.17;;
7473;SDS011;3778;42.572;23.426;2022-12-16T13:37:43;6.37;;;4.33;;
7473;SDS011;3778;42.572;23.426;2022-12-16T13:40:46;7.10;;;4.37;;
7473;SDS011;3778;42.572;23.426;2022-12-16T13:43:41;9.10;;;4.50;;
7473;SDS011;3778;42.572;23.426;2022-12-16T13:46:38;6.90;;;4.23;;
7473;SDS011;3778;42.572;23.426;2022-12-16T13:52:29;10.97;;;3.73;;
7473;SDS011;3778;42.572;23.426;2022-12-16T13:55:22;5.83;;;4.43;;
7473;SDS011;3778;42.572;23.426;2022-12-16T13:58:13;8.07;;;4.90;;
7473;SDS011;3778;42.572;23.426;2022-12-16T14:01:05;6.63;;;4.10;;
7473;SDS011;3778;42.572;23.426;2022-12-16T14:03:54;6.00;;;4.43;;
7473;SDS011;3778;42.572;23.426;2022-12-16T14:06:42;11.60;;;4.70;;
7473;SDS011;3778;42.572;23.426;2022-12-16T14:09:32;6.90;;;4.10;;
7473;SDS011;3778;42.572;23.426;2022-12-16T14:12:27;6.90;;;4.47;;
7473;SDS011;3778;42.572;23.426;2022-12-16T14:15:25;5.37;;;3.83;;
7473;SDS011;3778;42.572;23.426;2022-12-16T14:18:15;6.87;;;4.27;;
7473;SDS011;3778;42.572;23.426;2022-12-16T14:21:08;11.43;;;5.03;;
7473;SDS011;3778;42.572;23.426;2022-12-16T14:23:59;8.07;;;4.73;;
7473;SDS011;3778;42.572;23.426;2022-12-16T14:26:50;7.90;;;4.40;;
7473;SDS011;3778;42.572;23.426;2022-12-16T14:29:34;8.23;;;4.50;;
7473;SDS011;3778;42.572;23.426;2022-12-16T14:32:23;6.07;;;4.43;;
7473;SDS011;3778;42.572;23.426;2022-12-16T14:35:11;6.53;;;4.40;;
7473;SDS011;3778;42.572;23.426;2022-12-16T14:37:57;7.77;;;4.63;;
7473;SDS011;3778;42.572;23.426;2022-12-16T14:40:54;6.97;;;4.20;;
7473;SDS011;3778;42.572;23.426;2022-12-16T14:43:41;7.53;;;4.93;;
7473;SDS011;3778;42.572;23.426;2022-12-16T14:46:26;8.20;;;4.87;;
7473;SDS011;3778;42.572;23.426;2022-12-16T14:49:16;19.63;;;4.73;;
7473;SDS011;3778;42.572;23.426;2022-12-16T14:52:11;8.03;;;5.07;;
7473;SDS011;3778;42.572;23.426;2022-12-16T14:54:59;6.43;;;4.00;;
7473;SDS011;3778;42.572;23.426;2022-12-16T14:57:59;7.27;;;4.53;;
7473;SDS011;3778;42.572;23.426;2022-12-16T15:00:46;7.67;;;5.00;;
7473;SDS011;3778;42.572;23.426;2022-12-16T15:03:32;8.40;;;4.73;;
7473;SDS011;3778;42.572;23.426;2022-12-16T15:06:22;10.10;;;5.47;;
7473;SDS011;3778;42.572;23.426;2022-12-16T15:09:12;8.17;;;4.43;;
7473;SDS011;3778;42.572;23.426;2022-12-16T15:12:02;10.17;;;4.00;;
7473;SDS011;3778;42.572;23.426;2022-12-16T15:14:47;7.17;;;5.00;;
7473;SDS011;3778;42.572;23.426;2022-12-16T15:17:35;9.37;;;4.83;;
7473;SDS011;3778;42.572;23.426;2022-12-16T15:20:26;6.77;;;4.33;;
7473;SDS011;3778;42.572;23.426;2022-12-16T15:23:14;7.97;;;4.50;;
7473;SDS011;3778;42.572;23.426;2022-12-16T15:26:03;8.83;;;5.37;;
7473;SDS011;3778;42.572;23.426;2022-12-16T15:28:54;5.17;;;4.23;;
7473;SDS011;3778;42.572;23.426;2022-12-16T15:31:38;8.37;;;4.40;;
7473;SDS011;3778;42.572;23.426;2022-12-16T15:34:25;8.23;;;4.50;;
7473;SDS011;3778;42.572;23.426;2022-12-16T15:37:16;5.30;;;3.53;;
7473;SDS011;3778;42.572;23.426;2022-12-16T15:40:02;6.90;;;3.67;;
7473;SDS011;3778;42.572;23.426;2022-12-16T15:42:51;6.17;;;3.17;;
7473;SDS011;3778;42.572;23.426;2022-12-16T15:45:35;6.87;;;3.40;;
7473;SDS011;3778;42.572;23.426;2022-12-16T15:48:20;6.73;;;4.23;;
7473;SDS011;3778;42.572;23.426;2022-12-16T15:51:20;6.20;;;4.20;;
7473;SDS011;3778;42.572;23.426;2022-12-16T15:54:12;6.30;;;4.73;;
7473;SDS011;3778;42.572;23.426;2022-12-16T15:57:00;9.23;;;4.30;;
7473;SDS011;3778;42.572;23.426;2022-12-16T15:59:53;6.43;;;3.90;;
7473;SDS011;3778;42.572;23.426;2022-12-16T16:02:44;5.53;;;3.37;;
7473;SDS011;3778;42.572;23.426;2022-12-16T16:05:30;8.23;;;4.00;;
7473;SDS011;3778;42.572;23.426;2022-12-16T16:08:17;4.73;;;3.63;;
7473;SDS011;3778;42.572;23.426;2022-12-16T16:11:01;6.87;;;4.17;;
7473;SDS011;3778;42.572;23.426;2022-12-16T16:13:45;6.47;;;3.40;;
7473;SDS011;3778;42.572;23.426;2022-12-16T16:16:30;6.83;;;4.20;;
7473;SDS011;3778;42.572;23.426;2022-12-16T16:19:15;7.43;;;4.40;;
7473;SDS011;3778;42.572;23.426;2022-12-16T16:22:06;6.77;;;4.83;;
7473;SDS011;3778;42.572;23.426;2022-12-16T16:24:55;7.47;;;4.13;;
7473;SDS011;3778;42.572;23.426;2022-12-16T16:27:39;6.90;;;3.97;;
7473;SDS011;3778;42.572;23.426;2022-12-16T16:30:24;6.93;;;4.07;;
7473;SDS011;3778;42.572;23.426;2022-12-16T16:33:08;11.40;;;4.27;;
7473;SDS011;3778;42.572;23.426;2022-12-16T16:35:53;8.40;;;4.03;;
7473;SDS011;3778;42.572;23.426;2022-12-16T16:38:37;7.23;;;3.67;;
7473;SDS011;3778;42.572;23.426;2022-12-16T16:41:23;6.00;;;3.80;;
7473;SDS011;3778;42.572;23.426;2022-12-16T16:44:08;5.40;;;4.03;;